TISX/STX METAR and TAF weather

Enter ICAO airport designator
Station Type Date Time Source
TISX METAR 2020/01/24 02:53 UTC NOAA

TISX 240253Z AUTO 36003KT 4SM BR FEW022 OVC028 24/23 A2994 RMK AO2 SLP136 6//// T02440228 51014 $


Station Type Date Time Source
TISX Decoded METAR 2020/01/24 02:53 UTC NOAA

Christiansted, Henry E. Rohlsen Airport, Virgin Islands (TISX) 17-42N 064-48W 17M
Jan 23, 2020 - 09:53 PM EST / 2020.01.24 0253 UTC
Wind: from the N (360 degrees) at 3 MPH (3 KT):0
Visibility: 4 mile(s):0
Sky conditions: overcast
Weather: mist
Temperature: 75.9 F (24.4 C)
Dew Point: 73.0 F (22.8 C)
Relative Humidity: 90%
Pressure (altimeter): 29.94 in. Hg (1013 hPa)
Pressure tendency: 0.04 inches (1.4 hPa) higher than three hours ago
ob: TISX 240253Z AUTO 36003KT 4SM BR FEW022 OVC028 24/23 A2994 RMK AO2 SLP136 6//// T02440228 51014
cycle: 3

Station Type Date Time Source
TISX TAF 2020/01/24 02:55 UTC NOAA

TAF
AMD TISX 240146Z 2402/2424 25005KT P6SM FEW020 SCT040
TEMPO 2402/2404 VRB10KT 3SM SHRA BKN025 BKN040
FM240600 31006KT P6SM VCSH SCT025 BKN050
FM241500 03007KT P6SM VCSH FEW025 BKN050

Example: see airport list